sensor_id;sensor_type;location;lat;lon;timestamp;pressure;altitude;pressure_sealevel;temperature;humidity
48668;BME280;34453;52.198;5.004;2022-07-10T00:00:25;102916.19;;;15.94;100.00
48668;BME280;34453;52.198;5.004;2022-07-10T00:02:51;102925.66;;;15.97;100.00
48668;BME280;34453;52.198;5.004;2022-07-10T00:05:21;102926.38;;;15.99;100.00
48668;BME280;34453;52.198;5.004;2022-07-10T00:07:48;102923.13;;;15.95;100.00
48668;BME280;34453;52.198;5.004;2022-07-10T00:10:14;102925.53;;;15.87;100.00
48668;BME280;34453;52.198;5.004;2022-07-10T00:12:39;102923.16;;;15.84;100.00
48668;BME280;34453;52.198;5.004;2022-07-10T00:15:05;102915.00;;;15.87;100.00
48668;BME280;34453;52.198;5.004;2022-07-10T00:17:32;102914.66;;;15.81;100.00
48668;BME280;34453;52.198;5.004;2022-07-10T00:19:57;102916.47;;;15.80;100.00
48668;BME280;34453;52.198;5.004;2022-07-10T00:22:23;102920.19;;;15.78;100.00
48668;BME280;34453;52.198;5.004;2022-07-10T00:24:48;102915.88;;;15.65;100.00
48668;BME280;34453;52.198;5.004;2022-07-10T00:27:16;102923.53;;;15.68;100.00
48668;BME280;34453;52.198;5.004;2022-07-10T00:29:42;102923.91;;;15.64;100.00
48668;BME280;34453;52.198;5.004;2022-07-10T00:32:07;102925.72;;;15.63;100.00
48668;BME280;34453;52.198;5.004;2022-07-10T00:34:33;102925.75;;;15.52;100.00
48668;BME280;34453;52.198;5.004;2022-07-10T00:36:59;102931.59;;;15.55;100.00
48668;BME280;34453;52.198;5.004;2022-07-10T00:39:25;102925.50;;;15.55;100.00
48668;BME280;34453;52.198;5.004;2022-07-10T00:41:50;102921.06;;;15.55;100.00
48668;BME280;34453;52.198;5.004;2022-07-10T00:44:16;102920.94;;;15.57;100.00
48668;BME280;34453;52.198;5.004;2022-07-10T00:46:42;102921.78;;;15.58;100.00
48668;BME280;34453;52.198;5.004;2022-07-10T00:49:07;102921.88;;;15.56;100.00
48668;BME280;34453;52.198;5.004;2022-07-10T00:51:32;102913.03;;;15.57;100.00
48668;BME280;34453;52.198;5.004;2022-07-10T00:53:59;102914.94;;;15.55;100.00
48668;BME280;34453;52.198;5.004;2022-07-10T00:56:27;102905.38;;;15.54;100.00
48668;BME280;34453;52.198;5.004;2022-07-10T00:58:53;102908.72;;;15.45;100.00
48668;BME280;34453;52.198;5.004;2022-07-10T01:01:20;102905.97;;;15.46;100.00
48668;BME280;34453;52.198;5.004;2022-07-10T01:03:46;102905.38;;;15.31;100.00
48668;BME280;34453;52.198;5.004;2022-07-10T01:06:12;102909.00;;;15.19;100.00
48668;BME280;34453;52.198;5.004;2022-07-10T01:08:39;102905.53;;;15.07;100.00
48668;BME280;34453;52.198;5.004;2022-07-10T01:11:04;102906.38;;;15.08;100.00
48668;BME280;34453;52.198;5.004;2022-07-10T01:13:30;102904.31;;;15.11;100.00
48668;BME280;34453;52.198;5.004;2022-07-10T01:15:57;102902.78;;;15.09;100.00
48668;BME280;34453;52.198;5.004;2022-07-10T01:18:22;102905.53;;;15.07;100.00
48668;BME280;34453;52.198;5.004;2022-07-10T01:20:57;102898.31;;;15.09;100.00
48668;BME280;34453;52.198;5.004;2022-07-10T01:23:23;102909.22;;;15.16;100.00
48668;BME280;34453;52.198;5.004;2022-07-10T01:25:50;102901.81;;;15.21;100.00
48668;BME280;34453;52.198;5.004;2022-07-10T01:28:20;102902.28;;;15.26;100.00
48668;BME280;34453;52.198;5.004;2022-07-10T01:30:46;102896.28;;;15.24;100.00
48668;BME280;34453;52.198;5.004;2022-07-10T01:33:12;102894.38;;;15.26;100.00
48668;BME280;34453;52.198;5.004;2022-07-10T01:35:37;102897.72;;;15.28;100.00
48668;BME280;34453;52.198;5.004;2022-07-10T01:38:03;102892.44;;;15.28;100.00
48668;BME280;34453;52.198;5.004;2022-07-10T01:40:29;102886.22;;;15.18;100.00
48668;BME280;34453;52.198;5.004;2022-07-10T01:42:54;102886.38;;;15.05;100.00
48668;BME280;34453;52.198;5.004;2022-07-10T01:45:20;102892.47;;;14.95;100.00
48668;BME280;34453;52.198;5.004;2022-07-10T01:47:45;102888.41;;;14.79;100.00
48668;BME280;34453;52.198;5.004;2022-07-10T01:50:11;102893.31;;;14.73;100.00
48668;BME280;34453;52.198;5.004;2022-07-10T01:52:37;102893.88;;;14.65;100.00
48668;BME280;34453;52.198;5.004;2022-07-10T01:55:03;102888.25;;;14.58;100.00
48668;BME280;34453;52.198;5.004;2022-07-10T01:57:29;102890.03;;;14.58;100.00
48668;BME280;34453;52.198;5.004;2022-07-10T01:59:55;102890.72;;;14.48;100.00
48668;BME280;34453;52.198;5.004;2022-07-10T02:02:20;102892.03;;;14.43;100.00
48668;BME280;34453;52.198;5.004;2022-07-10T02:04:46;102891.31;;;14.41;100.00
48668;BME280;34453;52.198;5.004;2022-07-10T02:07:13;102878.88;;;14.43;100.00
48668;BME280;34453;52.198;5.004;2022-07-10T02:09:40;102870.13;;;14.42;100.00
48668;BME280;34453;52.198;5.004;2022-07-10T02:12:07;102879.72;;;14.43;100.00
48668;BME280;34453;52.198;5.004;2022-07-10T02:14:33;102878.75;;;14.44;100.00
48668;BME280;34453;52.198;5.004;2022-07-10T02:16:58;102875.88;;;14.47;100.00
48668;BME280;34453;52.198;5.004;2022-07-10T02:19:24;102878.16;;;14.52;100.00
48668;BME280;34453;52.198;5.004;2022-07-10T02:21:50;102867.03;;;14.48;100.00
48668;BME280;34453;52.198;5.004;2022-07-10T02:24:16;102874.19;;;14.46;100.00
48668;BME280;34453;52.198;5.004;2022-07-10T02:26:42;102869.53;;;14.39;100.00
48668;BME280;34453;52.198;5.004;2022-07-10T02:29:07;102878.38;;;14.38;100.00
48668;BME280;34453;52.198;5.004;2022-07-10T02:31:33;102883.03;;;14.34;100.00
48668;BME280;34453;52.198;5.004;2022-07-10T02:34:02;102883.03;;;14.34;100.00
48668;BME280;34453;52.198;5.004;2022-07-10T02:36:27;102883.16;;;14.33;100.00
48668;BME280;34453;52.198;5.004;2022-07-10T02:38:53;102883.97;;;14.33;100.00
48668;BME280;34453;52.198;5.004;2022-07-10T02:41:19;102879.19;;;14.38;100.00
48668;BME280;34453;52.198;5.004;2022-07-10T02:43:44;102875.63;;;14.39;100.00
48668;BME280;34453;52.198;5.004;2022-07-10T02:46:09;102879.53;;;14.34;100.00
48668;BME280;34453;52.198;5.004;2022-07-10T02:48:35;102876.56;;;14.38;100.00
48668;BME280;34453;52.198;5.004;2022-07-10T02:51:00;102879.81;;;14.42;100.00
48668;BME280;34453;52.198;5.004;2022-07-10T02:53:26;102877.56;;;14.48;100.00
48668;BME280;34453;52.198;5.004;2022-07-10T02:55:51;102882.47;;;14.53;100.00
48668;BME280;34453;52.198;5.004;2022-07-10T02:58:17;102882.97;;;14.58;100.00
48668;BME280;34453;52.198;5.004;2022-07-10T03:00:43;102885.25;;;14.63;100.00
48668;BME280;34453;52.198;5.004;2022-07-10T03:03:08;102883.97;;;14.68;100.00
48668;BME280;34453;52.198;5.004;2022-07-10T03:05:34;102884.31;;;14.75;100.00
48668;BME280;34453;52.198;5.004;2022-07-10T03:07:59;102876.66;;;14.83;100.00
48668;BME280;34453;52.198;5.004;2022-07-10T03:10:25;102871.75;;;14.90;100.00
48668;BME280;34453;52.198;5.004;2022-07-10T03:12:51;102870.78;;;14.91;100.00
48668;BME280;34453;52.198;5.004;2022-07-10T03:15:16;102878.94;;;14.88;100.00
48668;BME280;34453;52.198;5.004;2022-07-10T03:17:42;102872.13;;;14.85;100.00
48668;BME280;34453;52.198;5.004;2022-07-10T03:20:08;102869.34;;;14.76;100.00
48668;BME280;34453;52.198;5.004;2022-07-10T03:22:34;102875.69;;;14.73;100.00
48668;BME280;34453;52.198;5.004;2022-07-10T03:25:00;102870.19;;;14.76;100.00
48668;BME280;34453;52.198;5.004;2022-07-10T03:27:25;102871.25;;;14.74;100.00
48668;BME280;34453;52.198;5.004;2022-07-10T03:29:50;102865.28;;;14.71;100.00
48668;BME280;34453;52.198;5.004;2022-07-10T03:32:16;102863.00;;;14.67;100.00
48668;BME280;34453;52.198;5.004;2022-07-10T03:34:41;102865.41;;;14.70;100.00
48668;BME280;34453;52.198;5.004;2022-07-10T03:37:07;102873.16;;;14.71;100.00
48668;BME280;34453;52.198;5.004;2022-07-10T03:39:32;102867.91;;;14.71;100.00
48668;BME280;34453;52.198;5.004;2022-07-10T03:41:58;102870.91;;;14.78;100.00
48668;BME280;34453;52.198;5.004;2022-07-10T03:44:23;102867.22;;;14.81;100.00
48668;BME280;34453;52.198;5.004;2022-07-10T03:46:49;102863.13;;;14.88;100.00
48668;BME280;34453;52.198;5.004;2022-07-10T03:49:14;102860.34;;;14.89;100.00
48668;BME280;34453;52.198;5.004;2022-07-10T03:51:39;102838.78;;;14.96;100.00
48668;BME280;34453;52.198;5.004;2022-07-10T03:54:05;102828.97;;;14.98;100.00
48668;BME280;34453;52.198;5.004;2022-07-10T03:56:31;102831.16;;;14.92;100.00
48668;BME280;34453;52.198;5.004;2022-07-10T03:59:15;102828.63;;;14.91;100.00
48668;BME280;34453;52.198;5.004;2022-07-10T04:01:40;102834.72;;;14.91;100.00
48668;BME280;34453;52.198;5.004;2022-07-10T04:04:06;102837.84;;;14.97;100.00
48668;BME280;34453;52.198;5.004;2022-07-10T04:06:31;102840.72;;;14.93;100.00
48668;BME280;34453;52.198;5.004;2022-07-10T04:08:57;102842.16;;;14.98;100.00
48668;BME280;34453;52.198;5.004;2022-07-10T04:11:22;102846.34;;;15.00;100.00
48668;BME280;34453;52.198;5.004;2022-07-10T04:13:47;102847.88;;;15.03;100.00
48668;BME280;34453;52.198;5.004;2022-07-10T04:16:13;102842.41;;;15.06;100.00
48668;BME280;34453;52.198;5.004;2022-07-10T04:18:39;102829.69;;;15.11;100.00
48668;BME280;34453;52.198;5.004;2022-07-10T04:21:05;102835.91;;;15.10;100.00
48668;BME280;34453;52.198;5.004;2022-07-10T04:23:32;102835.66;;;15.13;100.00
48668;BME280;34453;52.198;5.004;2022-07-10T04:25:58;102829.91;;;15.19;100.00
48668;BME280;34453;52.198;5.004;2022-07-10T04:28:23;102831.56;;;15.20;100.00
48668;BME280;34453;52.198;5.004;2022-07-10T04:30:49;102837.34;;;15.25;100.00
48668;BME280;34453;52.198;5.004;2022-07-10T04:33:14;102838.06;;;15.27;100.00
48668;BME280;34453;52.198;5.004;2022-07-10T04:35:40;102841.16;;;15.32;100.00
48668;BME280;34453;52.198;5.004;2022-07-10T04:38:06;102852.16;;;15.38;100.00
48668;BME280;34453;52.198;5.004;2022-07-10T04:40:31;102844.50;;;15.34;100.00
48668;BME280;34453;52.198;5.004;2022-07-10T04:42:56;102844.25;;;15.38;100.00
48668;BME280;34453;52.198;5.004;2022-07-10T04:45:22;102851.22;;;15.39;100.00
48668;BME280;34453;52.198;5.004;2022-07-10T04:47:48;102846.38;;;15.44;100.00
48668;BME280;34453;52.198;5.004;2022-07-10T04:50:13;102845.91;;;15.50;100.00
48668;BME280;34453;52.198;5.004;2022-07-10T04:52:39;102854.16;;;15.57;100.00
48668;BME280;34453;52.198;5.004;2022-07-10T04:55:05;102843.59;;;15.57;100.00
48668;BME280;34453;52.198;5.004;2022-07-10T04:57:30;102844.88;;;15.62;100.00
48668;BME280;34453;52.198;5.004;2022-07-10T04:59:56;102847.41;;;15.64;100.00
48668;BME280;34453;52.198;5.004;2022-07-10T05:02:22;102843.41;;;15.69;100.00
48668;BME280;34453;52.198;5.004;2022-07-10T05:04:47;102847.75;;;15.70;100.00
48668;BME280;34453;52.198;5.004;2022-07-10T05:07:13;102854.34;;;15.76;100.00
48668;BME280;34453;52.198;5.004;2022-07-10T05:09:40;102849.31;;;15.73;100.00
48668;BME280;34453;52.198;5.004;2022-07-10T05:12:05;102855.22;;;15.65;100.00
48668;BME280;34453;52.198;5.004;2022-07-10T05:14:31;102850.16;;;15.62;100.00
48668;BME280;34453;52.198;5.004;2022-07-10T05:16:57;102849.59;;;15.59;100.00
48668;BME280;34453;52.198;5.004;2022-07-10T05:19:22;102846.94;;;15.59;100.00
48668;BME280;34453;52.198;5.004;2022-07-10T05:21:48;102845.59;;;15.64;100.00
48668;BME280;34453;52.198;5.004;2022-07-10T05:24:13;102855.91;;;15.67;100.00
48668;BME280;34453;52.198;5.004;2022-07-10T05:26:39;102847.03;;;15.68;100.00
48668;BME280;34453;52.198;5.004;2022-07-10T05:29:04;102846.41;;;15.76;100.00
48668;BME280;34453;52.198;5.004;2022-07-10T05:31:30;102850.84;;;15.75;100.00
48668;BME280;34453;52.198;5.004;2022-07-10T05:33:55;102855.25;;;15.86;100.00
48668;BME280;34453;52.198;5.004;2022-07-10T05:36:20;102850.81;;;15.87;100.00
48668;BME280;34453;52.198;5.004;2022-07-10T05:38:46;102845.03;;;15.93;100.00
48668;BME280;34453;52.198;5.004;2022-07-10T05:41:11;102843.94;;;15.95;100.00
48668;BME280;34453;52.198;5.004;2022-07-10T05:43:37;102843.31;;;16.03;100.00
48668;BME280;34453;52.198;5.004;2022-07-10T05:46:02;102839.19;;;16.10;100.00
48668;BME280;34453;52.198;5.004;2022-07-10T05:48:28;102835.75;;;16.20;100.00
48668;BME280;34453;52.198;5.004;2022-07-10T05:50:53;102840.69;;;16.34;100.00
48668;BME280;34453;52.198;5.004;2022-07-10T05:53:19;102841.81;;;16.31;100.00
48668;BME280;34453;52.198;5.004;2022-07-10T05:55:46;102846.97;;;16.33;100.00
48668;BME280;34453;52.198;5.004;2022-07-10T05:58:12;102844.50;;;16.41;100.00
48668;BME280;34453;52.198;5.004;2022-07-10T06:00:38;102839.34;;;16.40;100.00
48668;BME280;34453;52.198;5.004;2022-07-10T06:03:03;102838.25;;;16.42;100.00
48668;BME280;34453;52.198;5.004;2022-07-10T06:05:29;102838.69;;;16.47;100.00
48668;BME280;34453;52.198;5.004;2022-07-10T06:07:54;102834.81;;;16.51;100.00
48668;BME280;34453;52.198;5.004;2022-07-10T06:10:20;102836.00;;;16.58;100.00
48668;BME280;34453;52.198;5.004;2022-07-10T06:12:45;102833.78;;;16.64;100.00
48668;BME280;34453;52.198;5.004;2022-07-10T06:15:11;102846.28;;;16.62;100.00
48668;BME280;34453;52.198;5.004;2022-07-10T06:17:36;102846.56;;;16.58;100.00
48668;BME280;34453;52.198;5.004;2022-07-10T06:20:02;102840.88;;;16.63;100.00
48668;BME280;34453;52.198;5.004;2022-07-10T06:22:27;102841.13;;;16.60;100.00
48668;BME280;34453;52.198;5.004;2022-07-10T06:25:00;102845.97;;;16.55;100.00
48668;BME280;34453;52.198;5.004;2022-07-10T06:27:26;102845.69;;;16.58;100.00
48668;BME280;34453;52.198;5.004;2022-07-10T06:29:51;102845.56;;;16.60;100.00
48668;BME280;34453;52.198;5.004;2022-07-10T06:32:17;102847.22;;;16.61;100.00
48668;BME280;34453;52.198;5.004;2022-07-10T06:34:42;102855.34;;;16.69;100.00
48668;BME280;34453;52.198;5.004;2022-07-10T06:37:08;102853.53;;;16.69;100.00
48668;BME280;34453;52.198;5.004;2022-07-10T06:39:34;102854.13;;;16.73;100.00
48668;BME280;34453;52.198;5.004;2022-07-10T06:42:03;102849.66;;;16.73;100.00
48668;BME280;34453;52.198;5.004;2022-07-10T06:44:29;102850.75;;;16.71;100.00
48668;BME280;34453;52.198;5.004;2022-07-10T06:46:54;102851.97;;;16.57;100.00
48668;BME280;34453;52.198;5.004;2022-07-10T06:49:40;102856.75;;;16.73;100.00
48668;BME280;34453;52.198;5.004;2022-07-10T06:52:06;102846.59;;;16.68;100.00
48668;BME280;34453;52.198;5.004;2022-07-10T06:54:32;102847.28;;;16.70;100.00
48668;BME280;34453;52.198;5.004;2022-07-10T06:56:58;102843.19;;;16.87;100.00
48668;BME280;34453;52.198;5.004;2022-07-10T06:59:23;102853.00;;;16.96;100.00
48668;BME280;34453;52.198;5.004;2022-07-10T07:01:49;102846.63;;;17.09;100.00
48668;BME280;34453;52.198;5.004;2022-07-10T07:04:15;102851.09;;;17.18;100.00
48668;BME280;34453;52.198;5.004;2022-07-10T07:06:40;102851.38;;;17.15;100.00
48668;BME280;34453;52.198;5.004;2022-07-10T07:09:06;102854.00;;;17.15;100.00
48668;BME280;34453;52.198;5.004;2022-07-10T07:11:31;102854.53;;;17.09;100.00
48668;BME280;34453;52.198;5.004;2022-07-10T07:13:57;102858.13;;;16.98;100.00
48668;BME280;34453;52.198;5.004;2022-07-10T07:16:22;102853.41;;;17.02;100.00
48668;BME280;34453;52.198;5.004;2022-07-10T07:19:03;102846.41;;;16.91;100.00
48668;BME280;34453;52.198;5.004;2022-07-10T07:21:30;102847.44;;;16.99;100.00
48668;BME280;34453;52.198;5.004;2022-07-10T07:24:14;102849.78;;;16.93;100.00
48668;BME280;34453;52.198;5.004;2022-07-10T07:26:40;102852.28;;;16.94;100.00
48668;BME280;34453;52.198;5.004;2022-07-10T07:29:06;102846.19;;;17.04;100.00
48668;BME280;34453;52.198;5.004;2022-07-10T07:31:31;102852.63;;;17.20;100.00
48668;BME280;34453;52.198;5.004;2022-07-10T07:33:57;102857.25;;;17.38;100.00
48668;BME280;34453;52.198;5.004;2022-07-10T07:36:23;102850.31;;;17.37;100.00
48668;BME280;34453;52.198;5.004;2022-07-10T07:38:48;102848.19;;;17.40;100.00
48668;BME280;34453;52.198;5.004;2022-07-10T07:41:14;102846.53;;;17.39;100.00
48668;BME280;34453;52.198;5.004;2022-07-10T07:43:40;102842.22;;;17.48;100.00
48668;BME280;34453;52.198;5.004;2022-07-10T07:46:06;102851.16;;;17.57;100.00
48668;BME280;34453;52.198;5.004;2022-07-10T07:48:32;102848.91;;;17.62;100.00
48668;BME280;34453;52.198;5.004;2022-07-10T07:50:57;102850.88;;;17.70;100.00
48668;BME280;34453;52.198;5.004;2022-07-10T07:53:23;102849.38;;;17.87;100.00
48668;BME280;34453;52.198;5.004;2022-07-10T07:55:48;102857.72;;;17.92;100.00
48668;BME280;34453;52.198;5.004;2022-07-10T07:58:14;102855.50;;;17.97;100.00
48668;BME280;34453;52.198;5.004;2022-07-10T08:00:39;102850.75;;;18.10;100.00
48668;BME280;34453;52.198;5.004;2022-07-10T08:03:05;102849.38;;;17.87;100.00
48668;BME280;34453;52.198;5.004;2022-07-10T08:05:30;102861.34;;;17.91;100.00
48668;BME280;34453;52.198;5.004;2022-07-10T08:07:59;102858.00;;;17.89;100.00
48668;BME280;34453;52.198;5.004;2022-07-10T08:10:30;102860.47;;;17.80;100.00
48668;BME280;34453;52.198;5.004;2022-07-10T08:12:56;102847.25;;;17.80;100.00
48668;BME280;34453;52.198;5.004;2022-07-10T08:15:22;102852.44;;;18.01;100.00
48668;BME280;34453;52.198;5.004;2022-07-10T08:17:49;102836.63;;;18.19;100.00
48668;BME280;34453;52.198;5.004;2022-07-10T08:20:15;102836.69;;;18.47;100.00
48668;BME280;34453;52.198;5.004;2022-07-10T08:22:41;102835.03;;;18.46;100.00
48668;BME280;34453;52.198;5.004;2022-07-10T08:25:08;102839.97;;;18.69;100.00
48668;BME280;34453;52.198;5.004;2022-07-10T08:27:34;102833.09;;;18.86;100.00
48668;BME280;34453;52.198;5.004;2022-07-10T08:29:59;102815.22;;;18.88;100.00
48668;BME280;34453;52.198;5.004;2022-07-10T08:32:25;102826.09;;;19.12;100.00
48668;BME280;34453;52.198;5.004;2022-07-10T08:34:52;102829.81;;;19.37;100.00
48668;BME280;34453;52.198;5.004;2022-07-10T08:37:18;102813.06;;;19.37;100.00
48668;BME280;34453;52.198;5.004;2022-07-10T08:39:46;102813.22;;;19.53;100.00
48668;BME280;34453;52.198;5.004;2022-07-10T08:42:12;102816.31;;;19.66;100.00
48668;BME280;34453;52.198;5.004;2022-07-10T08:44:38;102818.84;;;19.32;100.00
48668;BME280;34453;52.198;5.004;2022-07-10T08:47:04;102819.06;;;19.39;100.00
48668;BME280;34453;52.198;5.004;2022-07-10T08:49:31;102822.00;;;19.54;100.00
48668;BME280;34453;52.198;5.004;2022-07-10T08:54:32;102820.34;;;19.17;100.00
48668;BME280;34453;52.198;5.004;2022-07-10T08:56:59;102822.91;;;19.09;100.00
48668;BME280;34453;52.198;5.004;2022-07-10T08:59:26;102822.81;;;19.18;100.00
48668;BME280;34453;52.198;5.004;2022-07-10T09:01:51;102817.97;;;19.50;100.00
48668;BME280;34453;52.198;5.004;2022-07-10T09:04:23;102810.78;;;19.60;100.00
48668;BME280;34453;52.198;5.004;2022-07-10T09:06:50;102822.25;;;19.42;100.00
48668;BME280;34453;52.198;5.004;2022-07-10T09:09:16;102813.75;;;19.57;100.00
48668;BME280;34453;52.198;5.004;2022-07-10T09:11:42;102821.75;;;19.75;100.00
48668;BME280;34453;52.198;5.004;2022-07-10T09:14:09;102806.16;;;19.62;100.00
48668;BME280;34453;52.198;5.004;2022-07-10T09:16:39;102812.56;;;19.69;100.00
48668;BME280;34453;52.198;5.004;2022-07-10T09:21:40;102809.97;;;19.77;100.00
48668;BME280;34453;52.198;5.004;2022-07-10T09:24:07;102807.81;;;19.63;100.00
48668;BME280;34453;52.198;5.004;2022-07-10T09:26:36;102799.94;;;19.71;100.00
48668;BME280;34453;52.198;5.004;2022-07-10T09:29:12;102803.41;;;19.90;100.00
48668;BME280;34453;52.198;5.004;2022-07-10T09:31:57;102800.75;;;19.90;100.00
48668;BME280;34453;52.198;5.004;2022-07-10T09:34:43;102798.94;;;19.90;100.00
48668;BME280;34453;52.198;5.004;2022-07-10T09:37:24;102800.38;;;19.66;100.00
48668;BME280;34453;52.198;5.004;2022-07-10T09:40:04;102800.38;;;19.66;100.00
48668;BME280;34453;52.198;5.004;2022-07-10T09:42:36;102797.88;;;19.65;100.00
48668;BME280;34453;52.198;5.004;2022-07-10T09:45:15;102794.03;;;19.77;100.00
48668;BME280;34453;52.198;5.004;2022-07-10T09:50:23;102793.25;;;20.11;100.00
48668;BME280;34453;52.198;5.004;2022-07-10T09:53:00;102788.03;;;20.27;100.00
48668;BME280;34453;52.198;5.004;2022-07-10T09:55:36;102787.31;;;20.43;100.00
48668;BME280;34453;52.198;5.004;2022-07-10T09:58:04;102776.91;;;20.58;100.00
48668;BME280;34453;52.198;5.004;2022-07-10T10:00:35;102782.41;;;20.65;100.00
48668;BME280;34453;52.198;5.004;2022-07-10T10:03:02;102781.59;;;20.64;100.00
48668;BME280;34453;52.198;5.004;2022-07-10T10:05:40;102782.28;;;20.75;100.00
48668;BME280;34453;52.198;5.004;2022-07-10T10:08:19;102796.56;;;20.74;100.00
48668;BME280;34453;52.198;5.004;2022-07-10T10:10:47;102780.44;;;20.41;100.00
48668;BME280;34453;52.198;5.004;2022-07-10T10:13:19;102779.25;;;20.01;100.00
48668;BME280;34453;52.198;5.004;2022-07-10T10:15:50;102778.16;;;20.12;100.00
48668;BME280;34453;52.198;5.004;2022-07-10T10:18:26;102776.91;;;20.24;100.00
48668;BME280;34453;52.198;5.004;2022-07-10T10:20:53;102779.81;;;20.47;100.00
48668;BME280;34453;52.198;5.004;2022-07-10T10:23:23;102774.00;;;20.43;100.00
48668;BME280;34453;52.198;5.004;2022-07-10T10:25:54;102780.78;;;20.38;100.00
48668;BME280;34453;52.198;5.004;2022-07-10T10:28:22;102778.44;;;20.69;100.00
48668;BME280;34453;52.198;5.004;2022-07-10T10:30:58;102786.28;;;20.70;100.00
48668;BME280;34453;52.198;5.004;2022-07-10T10:36:00;102784.22;;;21.15;100.00
48668;BME280;34453;52.198;5.004;2022-07-10T10:41:26;102774.91;;;21.36;100.00
48668;BME280;34453;52.198;5.004;2022-07-10T10:46:55;102784.03;;;21.25;100.00
48668;BME280;34453;52.198;5.004;2022-07-10T10:49:52;102780.06;;;21.13;100.00
48668;BME280;34453;52.198;5.004;2022-07-10T10:52:19;102773.28;;;21.43;100.00
48668;BME280;34453;52.198;5.004;2022-07-10T10:57:36;102772.09;;;21.45;100.00
48668;BME280;34453;52.198;5.004;2022-07-10T11:00:15;102767.41;;;21.23;100.00
48668;BME280;34453;52.198;5.004;2022-07-10T11:03:14;102764.56;;;21.00;100.00
48668;BME280;34453;52.198;5.004;2022-07-10T11:05:41;102768.25;;;21.31;100.00
48668;BME280;34453;52.198;5.004;2022-07-10T11:08:07;102768.41;;;21.38;100.00
48668;BME280;34453;52.198;5.004;2022-07-10T11:10:45;102763.56;;;21.25;100.00
48668;BME280;34453;52.198;5.004;2022-07-10T11:13:16;102767.44;;;21.39;100.00
48668;BME280;34453;52.198;5.004;2022-07-10T11:15:43;102763.59;;;21.33;100.00
48668;BME280;34453;52.198;5.004;2022-07-10T11:18:11;102764.78;;;21.64;100.00
48668;BME280;34453;52.198;5.004;2022-07-10T11:20:50;102755.25;;;21.20;100.00
48668;BME280;34453;52.198;5.004;2022-07-10T11:26:10;102759.75;;;21.36;100.00
48668;BME280;34453;52.198;5.004;2022-07-10T11:29:05;102763.47;;;21.43;100.00
48668;BME280;34453;52.198;5.004;2022-07-10T11:31:31;102761.44;;;21.37;100.00
48668;BME280;34453;52.198;5.004;2022-07-10T11:34:03;102770.63;;;21.51;100.00
48668;BME280;34453;52.198;5.004;2022-07-10T11:36:29;102770.09;;;21.39;100.00
48668;BME280;34453;52.198;5.004;2022-07-10T11:39:07;102761.59;;;21.27;100.00
48668;BME280;34453;52.198;5.004;2022-07-10T11:41:41;102759.97;;;21.43;100.00
48668;BME280;34453;52.198;5.004;2022-07-10T11:44:16;102753.78;;;21.83;100.00
48668;BME280;34453;52.198;5.004;2022-07-10T11:46:42;102742.41;;;21.98;100.00
48668;BME280;34453;52.198;5.004;2022-07-10T11:49:10;102750.78;;;22.42;100.00
48668;BME280;34453;52.198;5.004;2022-07-10T11:51:38;102750.00;;;22.65;100.00
48668;BME280;34453;52.198;5.004;2022-07-10T11:56:36;102730.94;;;22.76;100.00
48668;BME280;34453;52.198;5.004;2022-07-10T12:01:32;102739.38;;;22.17;100.00
48668;BME280;34453;52.198;5.004;2022-07-10T12:06:26;102743.09;;;22.47;100.00
48668;BME280;34453;52.198;5.004;2022-07-10T12:08:52;102735.16;;;22.70;100.00
48668;BME280;34453;52.198;5.004;2022-07-10T12:11:20;102731.03;;;22.60;100.00
48668;BME280;34453;52.198;5.004;2022-07-10T12:13:48;102734.03;;;22.88;100.00
48668;BME280;34453;52.198;5.004;2022-07-10T12:16:14;102725.78;;;23.21;100.00
48668;BME280;34453;52.198;5.004;2022-07-10T12:18:41;102736.78;;;23.26;100.00
48668;BME280;34453;52.198;5.004;2022-07-10T12:21:12;102732.97;;;22.97;100.00
48668;BME280;34453;52.198;5.004;2022-07-10T12:23:38;102734.94;;;23.26;100.00
48668;BME280;34453;52.198;5.004;2022-07-10T12:26:10;102727.63;;;22.97;100.00
48668;BME280;34453;52.198;5.004;2022-07-10T12:31:44;102732.22;;;22.57;100.00
48668;BME280;34453;52.198;5.004;2022-07-10T12:34:11;102731.16;;;22.66;100.00
48668;BME280;34453;52.198;5.004;2022-07-10T12:39:19;102729.16;;;22.91;100.00
48668;BME280;34453;52.198;5.004;2022-07-10T12:44:44;102723.13;;;22.97;100.00
48668;BME280;34453;52.198;5.004;2022-07-10T12:47:15;102735.41;;;22.52;100.00
48668;BME280;34453;52.198;5.004;2022-07-10T12:49:54;102724.38;;;22.55;100.00
48668;BME280;34453;52.198;5.004;2022-07-10T12:52:31;102731.06;;;22.83;100.00
48668;BME280;34453;52.198;5.004;2022-07-10T12:55:20;102727.81;;;22.72;100.00
48668;BME280;34453;52.198;5.004;2022-07-10T12:58:27;102726.66;;;22.67;100.00
48668;BME280;34453;52.198;5.004;2022-07-10T13:00:47;102727.00;;;22.64;100.00
48668;BME280;34453;52.198;5.004;2022-07-10T13:03:19;102735.44;;;22.75;100.00
48668;BME280;34453;52.198;5.004;2022-07-10T13:05:48;102723.25;;;22.81;100.00
48668;BME280;34453;52.198;5.004;2022-07-10T13:08:21;102719.03;;;22.87;100.00
48668;BME280;34453;52.198;5.004;2022-07-10T13:11:00;102721.19;;;23.14;100.00
48668;BME280;34453;52.198;5.004;2022-07-10T13:13:27;102724.22;;;23.11;100.00
48668;BME280;34453;52.198;5.004;2022-07-10T13:15:58;102718.72;;;22.82;100.00
48668;BME280;34453;52.198;5.004;2022-07-10T13:18:30;102722.59;;;22.48;100.00
48668;BME280;34453;52.198;5.004;2022-07-10T13:20:59;102718.28;;;22.39;100.00